sensor_id;sensor_type;location;lat;lon;timestamp;P1;durP1;ratioP1;P2;durP2;ratioP2
73699;SDS011;62005;50.082;8.988;2023-12-07T00:00:26;11.13;;;4.55;;
73699;SDS011;62005;50.082;8.988;2023-12-07T00:02:52;9.00;;;4.43;;
73699;SDS011;62005;50.082;8.988;2023-12-07T00:05:17;10.60;;;4.90;;
73699;SDS011;62005;50.082;8.988;2023-12-07T00:07:42;8.83;;;4.93;;
73699;SDS011;62005;50.082;8.988;2023-12-07T00:10:08;9.27;;;5.13;;
73699;SDS011;62005;50.082;8.988;2023-12-07T00:12:34;8.70;;;4.72;;
73699;SDS011;62005;50.082;8.988;2023-12-07T00:14:59;8.33;;;4.07;;
73699;SDS011;62005;50.082;8.988;2023-12-07T00:17:24;9.23;;;4.93;;
73699;SDS011;62005;50.082;8.988;2023-12-07T00:19:50;9.63;;;4.60;;
73699;SDS011;62005;50.082;8.988;2023-12-07T00:22:18;8.73;;;5.90;;
73699;SDS011;62005;50.082;8.988;2023-12-07T00:24:44;10.13;;;4.68;;
73699;SDS011;62005;50.082;8.988;2023-12-07T00:27:09;7.53;;;4.17;;
73699;SDS011;62005;50.082;8.988;2023-12-07T00:29:36;8.97;;;4.17;;
73699;SDS011;62005;50.082;8.988;2023-12-07T00:32:05;7.72;;;4.53;;
73699;SDS011;62005;50.082;8.988;2023-12-07T00:34:31;11.30;;;5.22;;
73699;SDS011;62005;50.082;8.988;2023-12-07T00:36:56;8.38;;;4.40;;
73699;SDS011;62005;50.082;8.988;2023-12-07T00:39:21;9.63;;;4.93;;
73699;SDS011;62005;50.082;8.988;2023-12-07T00:41:47;10.10;;;4.80;;
73699;SDS011;62005;50.082;8.988;2023-12-07T00:44:13;11.27;;;5.00;;
73699;SDS011;62005;50.082;8.988;2023-12-07T00:46:41;7.75;;;4.10;;
73699;SDS011;62005;50.082;8.988;2023-12-07T00:49:07;8.70;;;4.50;;
73699;SDS011;62005;50.082;8.988;2023-12-07T00:51:32;11.93;;;5.13;;
73699;SDS011;62005;50.082;8.988;2023-12-07T00:53:57;7.63;;;4.63;;
73699;SDS011;62005;50.082;8.988;2023-12-07T00:56:23;8.23;;;4.53;;
73699;SDS011;62005;50.082;8.988;2023-12-07T00:58:49;10.63;;;5.30;;
73699;SDS011;62005;50.082;8.988;2023-12-07T01:01:14;8.02;;;4.00;;
73699;SDS011;62005;50.082;8.988;2023-12-07T01:03:40;10.07;;;4.97;;
73699;SDS011;62005;50.082;8.988;2023-12-07T01:06:06;9.18;;;4.65;;
73699;SDS011;62005;50.082;8.988;2023-12-07T01:08:32;7.63;;;4.10;;
73699;SDS011;62005;50.082;8.988;2023-12-07T01:10:57;9.45;;;4.85;;
73699;SDS011;62005;50.082;8.988;2023-12-07T01:13:23;7.78;;;5.22;;
73699;SDS011;62005;50.082;8.988;2023-12-07T01:15:48;8.27;;;4.05;;
73699;SDS011;62005;50.082;8.988;2023-12-07T01:18:14;9.95;;;4.40;;
73699;SDS011;62005;50.082;8.988;2023-12-07T01:20:40;7.38;;;4.28;;
73699;SDS011;62005;50.082;8.988;2023-12-07T01:23:06;11.63;;;5.75;;
73699;SDS011;62005;50.082;8.988;2023-12-07T01:25:33;11.88;;;3.92;;
73699;SDS011;62005;50.082;8.988;2023-12-07T01:27:59;8.07;;;4.88;;
73699;SDS011;62005;50.082;8.988;2023-12-07T01:30:24;9.77;;;4.37;;
73699;SDS011;62005;50.082;8.988;2023-12-07T01:32:49;12.30;;;4.43;;
73699;SDS011;62005;50.082;8.988;2023-12-07T01:35:15;9.90;;;4.10;;
73699;SDS011;62005;50.082;8.988;2023-12-07T01:37:40;7.00;;;4.43;;
73699;SDS011;62005;50.082;8.988;2023-12-07T01:40:06;6.93;;;3.77;;
73699;SDS011;62005;50.082;8.988;2023-12-07T01:42:35;7.85;;;3.97;;
73699;SDS011;62005;50.082;8.988;2023-12-07T01:45:00;6.45;;;3.78;;
73699;SDS011;62005;50.082;8.988;2023-12-07T01:47:26;10.60;;;4.13;;
73699;SDS011;62005;50.082;8.988;2023-12-07T01:50:01;9.40;;;4.45;;
73699;SDS011;62005;50.082;8.988;2023-12-07T01:52:29;8.55;;;4.20;;
73699;SDS011;62005;50.082;8.988;2023-12-07T01:54:55;8.13;;;3.70;;
73699;SDS011;62005;50.082;8.988;2023-12-07T01:57:22;6.82;;;4.13;;
73699;SDS011;62005;50.082;8.988;2023-12-07T01:59:48;8.73;;;4.57;;
73699;SDS011;62005;50.082;8.988;2023-12-07T02:02:15;10.38;;;4.82;;
73699;SDS011;62005;50.082;8.988;2023-12-07T02:04:40;8.95;;;4.13;;
73699;SDS011;62005;50.082;8.988;2023-12-07T02:07:06;10.05;;;4.60;;
73699;SDS011;62005;50.082;8.988;2023-12-07T02:09:33;10.30;;;6.38;;
73699;SDS011;62005;50.082;8.988;2023-12-07T02:11:58;8.02;;;4.03;;
73699;SDS011;62005;50.082;8.988;2023-12-07T02:14:25;8.77;;;3.83;;
73699;SDS011;62005;50.082;8.988;2023-12-07T02:17:00;6.57;;;3.85;;
73699;SDS011;62005;50.082;8.988;2023-12-07T02:22:46;6.25;;;3.92;;
73699;SDS011;62005;50.082;8.988;2023-12-07T02:25:18;6.80;;;3.85;;
73699;SDS011;62005;50.082;8.988;2023-12-07T02:27:48;7.30;;;5.25;;
73699;SDS011;62005;50.082;8.988;2023-12-07T02:30:14;7.32;;;3.90;;
73699;SDS011;62005;50.082;8.988;2023-12-07T02:32:40;7.70;;;4.13;;
73699;SDS011;62005;50.082;8.988;2023-12-07T02:35:07;6.40;;;3.75;;
73699;SDS011;62005;50.082;8.988;2023-12-07T02:37:51;8.05;;;4.07;;
73699;SDS011;62005;50.082;8.988;2023-12-07T02:40:19;8.57;;;4.35;;
73699;SDS011;62005;50.082;8.988;2023-12-07T02:42:47;8.93;;;3.40;;
73699;SDS011;62005;50.082;8.988;2023-12-07T02:45:13;6.60;;;3.85;;
73699;SDS011;62005;50.082;8.988;2023-12-07T02:47:40;6.55;;;3.88;;
73699;SDS011;62005;50.082;8.988;2023-12-07T02:50:05;7.55;;;4.03;;
73699;SDS011;62005;50.082;8.988;2023-12-07T02:52:32;7.28;;;4.05;;
73699;SDS011;62005;50.082;8.988;2023-12-07T02:54:58;7.93;;;3.75;;
73699;SDS011;62005;50.082;8.988;2023-12-07T02:57:23;9.63;;;4.17;;
73699;SDS011;62005;50.082;8.988;2023-12-07T02:59:49;8.90;;;4.03;;
73699;SDS011;62005;50.082;8.988;2023-12-07T03:02:14;8.40;;;4.83;;
73699;SDS011;62005;50.082;8.988;2023-12-07T03:04:39;8.98;;;4.00;;
73699;SDS011;62005;50.082;8.988;2023-12-07T03:07:05;6.88;;;4.07;;
73699;SDS011;62005;50.082;8.988;2023-12-07T03:09:30;8.93;;;4.78;;
73699;SDS011;62005;50.082;8.988;2023-12-07T03:11:56;10.27;;;4.37;;
73699;SDS011;62005;50.082;8.988;2023-12-07T03:14:21;7.43;;;3.50;;
73699;SDS011;62005;50.082;8.988;2023-12-07T03:16:46;8.40;;;4.28;;
73699;SDS011;62005;50.082;8.988;2023-12-07T03:19:12;7.63;;;3.73;;
73699;SDS011;62005;50.082;8.988;2023-12-07T03:21:41;5.83;;;3.30;;
73699;SDS011;62005;50.082;8.988;2023-12-07T03:24:07;7.18;;;4.07;;
73699;SDS011;62005;50.082;8.988;2023-12-07T03:26:33;6.78;;;3.85;;
73699;SDS011;62005;50.082;8.988;2023-12-07T03:28:59;8.68;;;3.95;;
73699;SDS011;62005;50.082;8.988;2023-12-07T03:31:25;7.22;;;3.58;;
73699;SDS011;62005;50.082;8.988;2023-12-07T03:33:50;8.10;;;3.50;;
73699;SDS011;62005;50.082;8.988;2023-12-07T03:36:15;6.90;;;3.60;;
73699;SDS011;62005;50.082;8.988;2023-12-07T03:38:41;8.70;;;4.25;;
73699;SDS011;62005;50.082;8.988;2023-12-07T03:41:07;7.70;;;4.00;;
73699;SDS011;62005;50.082;8.988;2023-12-07T03:43:33;10.93;;;4.57;;
73699;SDS011;62005;50.082;8.988;2023-12-07T03:45:58;10.13;;;3.90;;
73699;SDS011;62005;50.082;8.988;2023-12-07T03:48:23;9.93;;;4.33;;
73699;SDS011;62005;50.082;8.988;2023-12-07T03:50:49;9.93;;;3.83;;
73699;SDS011;62005;50.082;8.988;2023-12-07T03:53:14;10.00;;;4.30;;
73699;SDS011;62005;50.082;8.988;2023-12-07T03:55:39;8.60;;;5.00;;
73699;SDS011;62005;50.082;8.988;2023-12-07T03:58:05;9.40;;;4.37;;
73699;SDS011;62005;50.082;8.988;2023-12-07T04:00:31;11.23;;;3.97;;
73699;SDS011;62005;50.082;8.988;2023-12-07T04:02:57;7.95;;;3.85;;
73699;SDS011;62005;50.082;8.988;2023-12-07T04:05:23;7.80;;;4.25;;
73699;SDS011;62005;50.082;8.988;2023-12-07T04:07:48;6.05;;;3.60;;
73699;SDS011;62005;50.082;8.988;2023-12-07T04:10:13;10.40;;;4.30;;
73699;SDS011;62005;50.082;8.988;2023-12-07T04:12:39;6.97;;;3.63;;
73699;SDS011;62005;50.082;8.988;2023-12-07T04:15:05;6.38;;;3.55;;
73699;SDS011;62005;50.082;8.988;2023-12-07T04:17:31;10.95;;;4.07;;
73699;SDS011;62005;50.082;8.988;2023-12-07T04:19:56;8.57;;;3.77;;
73699;SDS011;62005;50.082;8.988;2023-12-07T04:22:21;8.13;;;6.63;;
73699;SDS011;62005;50.082;8.988;2023-12-07T04:24:47;8.37;;;5.30;;
73699;SDS011;62005;50.082;8.988;2023-12-07T04:27:12;9.57;;;4.18;;
73699;SDS011;62005;50.082;8.988;2023-12-07T04:29:37;7.55;;;3.40;;
73699;SDS011;62005;50.082;8.988;2023-12-07T04:32:03;7.30;;;3.53;;
73699;SDS011;62005;50.082;8.988;2023-12-07T04:34:29;7.93;;;3.92;;
73699;SDS011;62005;50.082;8.988;2023-12-07T04:36:54;8.47;;;3.53;;
73699;SDS011;62005;50.082;8.988;2023-12-07T04:39:19;5.57;;;3.57;;
73699;SDS011;62005;50.082;8.988;2023-12-07T04:41:45;6.63;;;3.00;;
73699;SDS011;62005;50.082;8.988;2023-12-07T04:44:10;9.57;;;4.10;;
73699;SDS011;62005;50.082;8.988;2023-12-07T04:46:36;7.68;;;3.63;;
73699;SDS011;62005;50.082;8.988;2023-12-07T04:49:01;7.70;;;3.30;;
73699;SDS011;62005;50.082;8.988;2023-12-07T04:51:27;8.50;;;3.90;;
73699;SDS011;62005;50.082;8.988;2023-12-07T04:53:52;9.70;;;3.67;;
73699;SDS011;62005;50.082;8.988;2023-12-07T04:56:18;9.13;;;3.27;;
73699;SDS011;62005;50.082;8.988;2023-12-07T04:58:43;7.53;;;5.53;;
73699;SDS011;62005;50.082;8.988;2023-12-07T05:01:08;6.85;;;3.33;;
73699;SDS011;62005;50.082;8.988;2023-12-07T05:03:34;7.60;;;4.20;;
73699;SDS011;62005;50.082;8.988;2023-12-07T05:05:59;7.60;;;4.20;;
73699;SDS011;62005;50.082;8.988;2023-12-07T05:08:25;8.63;;;3.47;;
73699;SDS011;62005;50.082;8.988;2023-12-07T05:10:50;7.87;;;4.27;;
73699;SDS011;62005;50.082;8.988;2023-12-07T05:13:16;6.95;;;4.00;;
73699;SDS011;62005;50.082;8.988;2023-12-07T05:15:42;8.73;;;4.65;;
73699;SDS011;62005;50.082;8.988;2023-12-07T05:18:07;7.88;;;4.05;;
73699;SDS011;62005;50.082;8.988;2023-12-07T05:20:32;7.18;;;3.97;;
73699;SDS011;62005;50.082;8.988;2023-12-07T05:22:59;6.57;;;3.97;;
73699;SDS011;62005;50.082;8.988;2023-12-07T05:25:24;10.80;;;4.55;;
73699;SDS011;62005;50.082;8.988;2023-12-07T05:27:50;11.57;;;5.30;;
73699;SDS011;62005;50.082;8.988;2023-12-07T05:30:15;8.35;;;4.82;;
73699;SDS011;62005;50.082;8.988;2023-12-07T05:32:41;8.45;;;4.22;;
73699;SDS011;62005;50.082;8.988;2023-12-07T05:35:06;10.20;;;4.43;;
73699;SDS011;62005;50.082;8.988;2023-12-07T05:37:32;7.40;;;4.20;;
73699;SDS011;62005;50.082;8.988;2023-12-07T05:39:57;8.60;;;4.15;;
73699;SDS011;62005;50.082;8.988;2023-12-07T05:42:23;8.20;;;4.00;;
73699;SDS011;62005;50.082;8.988;2023-12-07T05:44:48;8.93;;;4.23;;
73699;SDS011;62005;50.082;8.988;2023-12-07T05:47:13;8.10;;;4.30;;
73699;SDS011;62005;50.082;8.988;2023-12-07T05:49:39;8.23;;;4.03;;
73699;SDS011;62005;50.082;8.988;2023-12-07T05:52:05;8.38;;;4.35;;
73699;SDS011;62005;50.082;8.988;2023-12-07T05:54:31;8.60;;;4.63;;
73699;SDS011;62005;50.082;8.988;2023-12-07T05:56:56;8.27;;;5.78;;
73699;SDS011;62005;50.082;8.988;2023-12-07T05:59:22;7.23;;;3.60;;
73699;SDS011;62005;50.082;8.988;2023-12-07T06:01:47;8.73;;;4.28;;
73699;SDS011;62005;50.082;8.988;2023-12-07T06:04:13;7.27;;;3.93;;
73699;SDS011;62005;50.082;8.988;2023-12-07T06:06:41;7.38;;;4.18;;
73699;SDS011;62005;50.082;8.988;2023-12-07T06:09:06;7.20;;;4.23;;
73699;SDS011;62005;50.082;8.988;2023-12-07T06:11:33;11.98;;;5.38;;
73699;SDS011;62005;50.082;8.988;2023-12-07T06:13:59;9.63;;;4.40;;
73699;SDS011;62005;50.082;8.988;2023-12-07T06:16:25;9.23;;;4.45;;
73699;SDS011;62005;50.082;8.988;2023-12-07T06:18:51;8.13;;;4.53;;
73699;SDS011;62005;50.082;8.988;2023-12-07T06:21:17;9.23;;;4.93;;
73699;SDS011;62005;50.082;8.988;2023-12-07T06:23:42;8.60;;;4.50;;
73699;SDS011;62005;50.082;8.988;2023-12-07T06:26:07;9.23;;;5.40;;
73699;SDS011;62005;50.082;8.988;2023-12-07T06:28:33;11.53;;;5.50;;
73699;SDS011;62005;50.082;8.988;2023-12-07T06:31:00;11.75;;;6.15;;
73699;SDS011;62005;50.082;8.988;2023-12-07T06:33:31;10.10;;;5.60;;
73699;SDS011;62005;50.082;8.988;2023-12-07T06:35:56;11.48;;;5.53;;
73699;SDS011;62005;50.082;8.988;2023-12-07T06:38:22;9.60;;;4.77;;
73699;SDS011;62005;50.082;8.988;2023-12-07T06:40:47;11.10;;;5.93;;
73699;SDS011;62005;50.082;8.988;2023-12-07T06:43:12;10.23;;;5.17;;
73699;SDS011;62005;50.082;8.988;2023-12-07T06:45:39;14.20;;;5.78;;
73699;SDS011;62005;50.082;8.988;2023-12-07T06:48:04;9.43;;;4.90;;
73699;SDS011;62005;50.082;8.988;2023-12-07T06:50:30;13.85;;;7.32;;
73699;SDS011;62005;50.082;8.988;2023-12-07T06:52:55;14.02;;;5.70;;
73699;SDS011;62005;50.082;8.988;2023-12-07T06:55:21;11.03;;;5.53;;
73699;SDS011;62005;50.082;8.988;2023-12-07T06:57:47;11.77;;;5.90;;
73699;SDS011;62005;50.082;8.988;2023-12-07T07:00:13;11.65;;;5.85;;
73699;SDS011;62005;50.082;8.988;2023-12-07T07:02:39;14.15;;;5.57;;
73699;SDS011;62005;50.082;8.988;2023-12-07T07:05:04;13.43;;;6.40;;
73699;SDS011;62005;50.082;8.988;2023-12-07T07:07:31;10.77;;;5.97;;
73699;SDS011;62005;50.082;8.988;2023-12-07T07:09:56;11.52;;;4.97;;
73699;SDS011;62005;50.082;8.988;2023-12-07T07:12:22;13.88;;;6.43;;
73699;SDS011;62005;50.082;8.988;2023-12-07T07:14:48;13.52;;;5.78;;
73699;SDS011;62005;50.082;8.988;2023-12-07T07:17:13;10.98;;;4.80;;
73699;SDS011;62005;50.082;8.988;2023-12-07T07:19:39;14.40;;;7.57;;
73699;SDS011;62005;50.082;8.988;2023-12-07T07:22:04;8.77;;;5.07;;
73699;SDS011;62005;50.082;8.988;2023-12-07T07:24:30;12.40;;;5.73;;
73699;SDS011;62005;50.082;8.988;2023-12-07T07:26:55;12.77;;;5.37;;
73699;SDS011;62005;50.082;8.988;2023-12-07T07:29:21;12.63;;;6.23;;
73699;SDS011;62005;50.082;8.988;2023-12-07T07:31:46;10.30;;;5.67;;
73699;SDS011;62005;50.082;8.988;2023-12-07T07:34:11;10.97;;;5.10;;
73699;SDS011;62005;50.082;8.988;2023-12-07T07:36:37;9.38;;;5.25;;
73699;SDS011;62005;50.082;8.988;2023-12-07T07:39:02;9.20;;;4.95;;
73699;SDS011;62005;50.082;8.988;2023-12-07T07:41:29;11.20;;;5.63;;
73699;SDS011;62005;50.082;8.988;2023-12-07T07:43:55;11.90;;;5.93;;
73699;SDS011;62005;50.082;8.988;2023-12-07T07:46:20;10.90;;;6.18;;
73699;SDS011;62005;50.082;8.988;2023-12-07T07:48:45;15.67;;;5.93;;
73699;SDS011;62005;50.082;8.988;2023-12-07T07:51:11;13.67;;;5.93;;
73699;SDS011;62005;50.082;8.988;2023-12-07T07:53:36;12.03;;;6.47;;
73699;SDS011;62005;50.082;8.988;2023-12-07T07:56:01;14.13;;;6.93;;
73699;SDS011;62005;50.082;8.988;2023-12-07T07:58:27;12.13;;;6.88;;
73699;SDS011;62005;50.082;8.988;2023-12-07T08:00:52;12.70;;;6.17;;
73699;SDS011;62005;50.082;8.988;2023-12-07T08:03:18;12.23;;;5.97;;
73699;SDS011;62005;50.082;8.988;2023-12-07T08:05:43;12.03;;;5.87;;
73699;SDS011;62005;50.082;8.988;2023-12-07T08:08:08;11.63;;;6.07;;
73699;SDS011;62005;50.082;8.988;2023-12-07T08:10:35;12.20;;;6.38;;
73699;SDS011;62005;50.082;8.988;2023-12-07T08:13:00;12.10;;;6.60;;
73699;SDS011;62005;50.082;8.988;2023-12-07T08:15:25;15.57;;;6.80;;
73699;SDS011;62005;50.082;8.988;2023-12-07T08:17:51;11.40;;;5.77;;
73699;SDS011;62005;50.082;8.988;2023-12-07T08:20:16;11.05;;;5.78;;
73699;SDS011;62005;50.082;8.988;2023-12-07T08:22:43;11.90;;;6.05;;
73699;SDS011;62005;50.082;8.988;2023-12-07T08:25:09;11.93;;;6.13;;
73699;SDS011;62005;50.082;8.988;2023-12-07T08:27:38;11.90;;;6.43;;
73699;SDS011;62005;50.082;8.988;2023-12-07T08:30:04;16.88;;;6.45;;
73699;SDS011;62005;50.082;8.988;2023-12-07T08:32:30;12.32;;;6.03;;
73699;SDS011;62005;50.082;8.988;2023-12-07T08:34:56;12.98;;;6.97;;
73699;SDS011;62005;50.082;8.988;2023-12-07T08:37:21;12.70;;;5.90;;
73699;SDS011;62005;50.082;8.988;2023-12-07T08:39:47;12.63;;;6.53;;
73699;SDS011;62005;50.082;8.988;2023-12-07T08:42:12;13.20;;;5.33;;
73699;SDS011;62005;50.082;8.988;2023-12-07T08:44:37;12.18;;;6.03;;
73699;SDS011;62005;50.082;8.988;2023-12-07T08:47:03;13.32;;;6.15;;
73699;SDS011;62005;50.082;8.988;2023-12-07T08:49:30;11.25;;;5.60;;
73699;SDS011;62005;50.082;8.988;2023-12-07T08:51:56;12.15;;;6.22;;
73699;SDS011;62005;50.082;8.988;2023-12-07T08:54:22;16.30;;;6.32;;
73699;SDS011;62005;50.082;8.988;2023-12-07T08:56:47;10.98;;;6.70;;
73699;SDS011;62005;50.082;8.988;2023-12-07T08:59:13;15.25;;;7.13;;
73699;SDS011;62005;50.082;8.988;2023-12-07T09:01:38;14.68;;;6.30;;
73699;SDS011;62005;50.082;8.988;2023-12-07T09:04:03;11.53;;;6.17;;
73699;SDS011;62005;50.082;8.988;2023-12-07T09:06:30;12.80;;;6.97;;
73699;SDS011;62005;50.082;8.988;2023-12-07T09:08:55;13.10;;;6.75;;
73699;SDS011;62005;50.082;8.988;2023-12-07T09:11:21;15.20;;;7.85;;
73699;SDS011;62005;50.082;8.988;2023-12-07T09:13:46;13.47;;;7.60;;
73699;SDS011;62005;50.082;8.988;2023-12-07T09:16:12;13.60;;;6.72;;
73699;SDS011;62005;50.082;8.988;2023-12-07T09:18:37;13.88;;;7.53;;
73699;SDS011;62005;50.082;8.988;2023-12-07T09:21:03;15.88;;;8.20;;
73699;SDS011;62005;50.082;8.988;2023-12-07T09:23:28;14.18;;;7.95;;
73699;SDS011;62005;50.082;8.988;2023-12-07T09:25:54;15.25;;;8.38;;
73699;SDS011;62005;50.082;8.988;2023-12-07T09:28:19;15.00;;;6.80;;
73699;SDS011;62005;50.082;8.988;2023-12-07T09:30:44;14.55;;;6.38;;
73699;SDS011;62005;50.082;8.988;2023-12-07T09:33:10;13.25;;;7.13;;
73699;SDS011;62005;50.082;8.988;2023-12-07T09:35:35;13.90;;;7.25;;
73699;SDS011;62005;50.082;8.988;2023-12-07T09:38:01;12.40;;;5.95;;
73699;SDS011;62005;50.082;8.988;2023-12-07T09:40:26;13.95;;;6.50;;
73699;SDS011;62005;50.082;8.988;2023-12-07T09:42:53;13.45;;;6.40;;
73699;SDS011;62005;50.082;8.988;2023-12-07T09:45:18;21.08;;;10.52;;
73699;SDS011;62005;50.082;8.988;2023-12-07T09:47:48;12.27;;;6.43;;
73699;SDS011;62005;50.082;8.988;2023-12-07T09:50:16;14.10;;;6.47;;
73699;SDS011;62005;50.082;8.988;2023-12-07T09:52:49;16.20;;;7.75;;
73699;SDS011;62005;50.082;8.988;2023-12-07T09:55:18;11.63;;;6.32;;
73699;SDS011;62005;50.082;8.988;2023-12-07T09:57:45;13.50;;;7.25;;
73699;SDS011;62005;50.082;8.988;2023-12-07T10:00:11;16.42;;;7.47;;
73699;SDS011;62005;50.082;8.988;2023-12-07T10:02:39;21.73;;;10.82;;
73699;SDS011;62005;50.082;8.988;2023-12-07T10:05:09;17.90;;;9.18;;
73699;SDS011;62005;50.082;8.988;2023-12-07T10:07:39;14.25;;;6.95;;
73699;SDS011;62005;50.082;8.988;2023-12-07T10:10:05;14.13;;;7.20;;
73699;SDS011;62005;50.082;8.988;2023-12-07T10:12:31;15.45;;;7.35;;
73699;SDS011;62005;50.082;8.988;2023-12-07T10:15:00;14.25;;;6.75;;
73699;SDS011;62005;50.082;8.988;2023-12-07T10:20:16;15.27;;;7.43;;
73699;SDS011;62005;50.082;8.988;2023-12-07T10:22:48;11.85;;;6.30;;
73699;SDS011;62005;50.082;8.988;2023-12-07T10:25:26;13.63;;;6.13;;
73699;SDS011;62005;50.082;8.988;2023-12-07T10:27:51;13.73;;;7.25;;
73699;SDS011;62005;50.082;8.988;2023-12-07T10:30:17;13.98;;;6.65;;
73699;SDS011;62005;50.082;8.988;2023-12-07T10:32:46;13.38;;;6.40;;
73699;SDS011;62005;50.082;8.988;2023-12-07T10:35:11;15.47;;;8.10;;
73699;SDS011;62005;50.082;8.988;2023-12-07T10:37:36;17.23;;;7.47;;
73699;SDS011;62005;50.082;8.988;2023-12-07T10:40:02;14.85;;;6.65;;
73699;SDS011;62005;50.082;8.988;2023-12-07T10:42:29;14.52;;;7.38;;
73699;SDS011;62005;50.082;8.988;2023-12-07T10:44:58;17.33;;;7.65;;
73699;SDS011;62005;50.082;8.988;2023-12-07T10:47:29;13.80;;;5.57;;
73699;SDS011;62005;50.082;8.988;2023-12-07T10:49:57;13.85;;;5.45;;
73699;SDS011;62005;50.082;8.988;2023-12-07T10:52:27;11.30;;;5.93;;
73699;SDS011;62005;50.082;8.988;2023-12-07T10:55:02;11.95;;;5.55;;
73699;SDS011;62005;50.082;8.988;2023-12-07T10:57:29;12.73;;;4.95;;
73699;SDS011;62005;50.082;8.988;2023-12-07T10:59:59;12.27;;;5.20;;
73699;SDS011;62005;50.082;8.988;2023-12-07T11:02:26;10.18;;;4.80;;
73699;SDS011;62005;50.082;8.988;2023-12-07T11:04:56;9.68;;;5.10;;
73699;SDS011;62005;50.082;8.988;2023-12-07T11:07:22;10.48;;;5.35;;
73699;SDS011;62005;50.082;8.988;2023-12-07T11:09:57;9.85;;;4.97;;
73699;SDS011;62005;50.082;8.988;2023-12-07T11:12:47;10.32;;;4.85;;
73699;SDS011;62005;50.082;8.988;2023-12-07T11:15:18;12.45;;;6.25;;
73699;SDS011;62005;50.082;8.988;2023-12-07T11:17:56;21.95;;;10.85;;
73699;SDS011;62005;50.082;8.988;2023-12-07T11:20:22;13.73;;;6.70;;
73699;SDS011;62005;50.082;8.988;2023-12-07T11:22:56;12.02;;;6.35;;
73699;SDS011;62005;50.082;8.988;2023-12-07T11:25:21;9.60;;;5.57;;
73699;SDS011;62005;50.082;8.988;2023-12-07T11:27:47;12.48;;;6.60;;
73699;SDS011;62005;50.082;8.988;2023-12-07T11:30:13;11.63;;;5.43;;
73699;SDS011;62005;50.082;8.988;2023-12-07T11:32:40;11.38;;;5.38;;
73699;SDS011;62005;50.082;8.988;2023-12-07T11:35:06;16.67;;;6.63;;
73699;SDS011;62005;50.082;8.988;2023-12-07T11:40:45;18.48;;;8.82;;
73699;SDS011;62005;50.082;8.988;2023-12-07T11:43:17;13.13;;;6.20;;
73699;SDS011;62005;50.082;8.988;2023-12-07T11:45:47;14.23;;;6.78;;
73699;SDS011;62005;50.082;8.988;2023-12-07T11:48:16;13.13;;;6.65;;
73699;SDS011;62005;50.082;8.988;2023-12-07T11:53:34;12.25;;;6.05;;
73699;SDS011;62005;50.082;8.988;2023-12-07T11:56:04;18.48;;;9.63;;
73699;SDS011;62005;50.082;8.988;2023-12-07T11:58:32;15.20;;;7.10;;
73699;SDS011;62005;50.082;8.988;2023-12-07T12:03:25;12.38;;;6.68;;
73699;SDS011;62005;50.082;8.988;2023-12-07T12:05:51;11.43;;;5.65;;
73699;SDS011;62005;50.082;8.988;2023-12-07T12:08:17;11.43;;;5.82;;
73699;SDS011;62005;50.082;8.988;2023-12-07T12:10:43;10.90;;;6.00;;
73699;SDS011;62005;50.082;8.988;2023-12-07T12:13:10;15.70;;;5.65;;
73699;SDS011;62005;50.082;8.988;2023-12-07T12:15:36;10.68;;;5.30;;
73699;SDS011;62005;50.082;8.988;2023-12-07T12:18:02;12.18;;;6.20;;
73699;SDS011;62005;50.082;8.988;2023-12-07T12:20:28;11.52;;;6.50;;
73699;SDS011;62005;50.082;8.988;2023-12-07T12:22:54;13.68;;;6.15;;
73699;SDS011;62005;50.082;8.988;2023-12-07T12:25:27;12.90;;;7.03;;
73699;SDS011;62005;50.082;8.988;2023-12-07T12:27:55;13.07;;;7.78;;
73699;SDS011;62005;50.082;8.988;2023-12-07T12:30:22;15.55;;;6.80;;
73699;SDS011;62005;50.082;8.988;2023-12-07T12:32:48;13.30;;;6.07;;
73699;SDS011;62005;50.082;8.988;2023-12-07T12:35:14;15.10;;;6.78;;
73699;SDS011;62005;50.082;8.988;2023-12-07T12:37:43;14.35;;;5.63;;
73699;SDS011;62005;50.082;8.988;2023-12-07T12:40:13;11.88;;;5.85;;
73699;SDS011;62005;50.082;8.988;2023-12-07T12:42:44;10.85;;;5.25;;
73699;SDS011;62005;50.082;8.988;2023-12-07T12:45:10;15.10;;;6.28;;
73699;SDS011;62005;50.082;8.988;2023-12-07T12:47:37;11.82;;;5.57;;
73699;SDS011;62005;50.082;8.988;2023-12-07T12:50:03;10.82;;;5.32;;
73699;SDS011;62005;50.082;8.988;2023-12-07T12:52:32;11.23;;;5.95;;
73699;SDS011;62005;50.082;8.988;2023-12-07T12:54:58;12.02;;;5.50;;
73699;SDS011;62005;50.082;8.988;2023-12-07T12:57:24;11.93;;;6.55;;
73699;SDS011;62005;50.082;8.988;2023-12-07T12:59:52;12.32;;;6.20;;
73699;SDS011;62005;50.082;8.988;2023-12-07T13:02:18;12.00;;;5.80;;
73699;SDS011;62005;50.082;8.988;2023-12-07T13:04:44;15.13;;;6.55;;
73699;SDS011;62005;50.082;8.988;2023-12-07T13:07:11;10.90;;;6.90;;
73699;SDS011;62005;50.082;8.988;2023-12-07T13:09:37;14.35;;;6.25;;
73699;SDS011;62005;50.082;8.988;2023-12-07T13:12:03;11.10;;;6.05;;
73699;SDS011;62005;50.082;8.988;2023-12-07T13:14:29;10.95;;;5.63;;
73699;SDS011;62005;50.082;8.988;2023-12-07T13:16:54;10.13;;;4.78;;
73699;SDS011;62005;50.082;8.988;2023-12-07T13:19:20;10.32;;;5.20;;
73699;SDS011;62005;50.082;8.988;2023-12-07T13:21:46;8.90;;;5.47;;
73699;SDS011;62005;50.082;8.988;2023-12-07T13:24:11;9.85;;;5.35;;
73699;SDS011;62005;50.082;8.988;2023-12-07T13:26:38;11.27;;;5.63;;
73699;SDS011;62005;50.082;8.988;2023-12-07T13:29:04;9.05;;;5.10;;
73699;SDS011;62005;50.082;8.988;2023-12-07T13:31:29;9.27;;;4.93;;
73699;SDS011;62005;50.082;8.988;2023-12-07T13:33:55;11.15;;;5.35;;
73699;SDS011;62005;50.082;8.988;2023-12-07T13:36:21;9.80;;;6.40;;
73699;SDS011;62005;50.082;8.988;2023-12-07T13:38:49;10.80;;;5.20;;
73699;SDS011;62005;50.082;8.988;2023-12-07T13:41:14;9.48;;;5.13;;
73699;SDS011;62005;50.082;8.988;2023-12-07T13:43:40;12.15;;;6.28;;
73699;SDS011;62005;50.082;8.988;2023-12-07T13:46:07;8.80;;;4.65;;
73699;SDS011;62005;50.082;8.988;2023-12-07T13:48:32;9.27;;;5.25;;
73699;SDS011;62005;50.082;8.988;2023-12-07T13:50:57;13.52;;;5.18;;
73699;SDS011;62005;50.082;8.988;2023-12-07T13:53:23;9.70;;;4.70;;
73699;SDS011;62005;50.082;8.988;2023-12-07T13:55:48;11.67;;;7.17;;
73699;SDS011;62005;50.082;8.988;2023-12-07T13:58:16;13.60;;;6.00;;
73699;SDS011;62005;50.082;8.988;2023-12-07T14:00:42;8.25;;;4.95;;
73699;SDS011;62005;50.082;8.988;2023-12-07T14:03:10;11.77;;;5.38;;
73699;SDS011;62005;50.082;8.988;2023-12-07T14:05:36;9.68;;;5.43;;
73699;SDS011;62005;50.082;8.988;2023-12-07T14:08:02;7.90;;;4.45;;
73699;SDS011;62005;50.082;8.988;2023-12-07T14:10:28;8.88;;;4.97;;
73699;SDS011;62005;50.082;8.988;2023-12-07T14:12:53;9.90;;;4.70;;
73699;SDS011;62005;50.082;8.988;2023-12-07T14:15:19;8.10;;;4.07;;
73699;SDS011;62005;50.082;8.988;2023-12-07T14:17:44;10.87;;;4.60;;
73699;SDS011;62005;50.082;8.988;2023-12-07T14:20:10;7.82;;;4.57;;
73699;SDS011;62005;50.082;8.988;2023-12-07T14:22:36;9.35;;;5.32;;
73699;SDS011;62005;50.082;8.988;2023-12-07T14:25:03;9.90;;;5.22;;
73699;SDS011;62005;50.082;8.988;2023-12-07T14:27:29;8.68;;;4.50;;
73699;SDS011;62005;50.082;8.988;2023-12-07T14:29:54;9.45;;;5.28;;
73699;SDS011;62005;50.082;8.988;2023-12-07T14:32:20;9.18;;;4.70;;
73699;SDS011;62005;50.082;8.988;2023-12-07T14:34:46;10.23;;;4.90;;
73699;SDS011;62005;50.082;8.988;2023-12-07T14:37:11;10.00;;;4.65;;
73699;SDS011;62005;50.082;8.988;2023-12-07T14:39:36;11.13;;;6.77;;
73699;SDS011;62005;50.082;8.988;2023-12-07T14:42:02;10.02;;;5.30;;
73699;SDS011;62005;50.082;8.988;2023-12-07T14:44:29;11.20;;;5.40;;
73699;SDS011;62005;50.082;8.988;2023-12-07T14:46:55;8.63;;;4.82;;
73699;SDS011;62005;50.082;8.988;2023-12-07T14:49:21;13.43;;;5.22;;